LTFE/BJV METAR and TAF weather

Enter ICAO airport designator
Station Type Date Time Source
LTFE METAR 2020/01/29 12:50 UTC NOAA

LTFE 291250Z 15005KT 120V190 9999 SCT030 BKN090 16/12 Q1015 NOSIG


Station Type Date Time Source
LTFE Decoded METAR 2020/01/29 12:50 UTC NOAA

Bodrum Milas Airport, Turkey (LTFE) 37-14-53N 027-40-55E
Jan 29, 2020 - 07:50 AM EST / 2020.01.29 1250 UTC
Wind: from the SSE (150 degrees) at 6 MPH (5 KT) (direction variable):0
Visibility: greater than 7 mile(s):0
Sky conditions: mostly cloudy
Temperature: 60 F (16 C)
Dew Point: 53 F (12 C)
Relative Humidity: 77%
Pressure (altimeter): 29.97 in. Hg (1015 hPa)
ob: LTFE 291250Z 15005KT 120V190 9999 SCT030 BKN090 16/12 Q1015 NOSIG
cycle: 13

Station Type Date Time Source
LTFE TAF 2020/01/29 12:03 UTC NOAA

TAF TAF LTFE 291040Z 2912/3012 20012KT 9999 SCT035 BKN100
TEMPO 2912/2915 -SHRA
BECMG 2915/2918 VRB02KT
BECMG 2918/2921 -SHRA
BECMG 3007/3010 27014KT

Example: see airport list